Time;durP1;ratioP1;P1;durP2;ratioP2;P2;SDS_P1;SDS_P2;PMS_P1;PMS_P2;Temp;Humidity;BMP_temperature;BMP_pressure;BME280_temperature;BME280_humidity;BME280_pressure;Samples;Min_cycle;Max_cycle;Signal;HPM_P1;HPM_P2
2022/08/15 00:00:41;;;;;;;5.22;5.00;;;20.00;99.90;;;;;;6311187;28;20206;-65
2022/08/15 00:03:52;;;;;;;5.43;5.22;;;20.00;99.90;;;;;;6310530;28;20476;-65
2022/08/15 00:07:09;;;;;;;5.18;4.97;;;19.90;99.90;;;;;;6310444;28;20454;-64
2022/08/15 00:10:22;;;;;;;5.80;5.30;;;19.90;99.90;;;;;;6309955;28;20290;-65
2022/08/15 00:13:50;;;;;;;5.25;4.75;;;19.90;99.90;;;;;;6310134;28;20298;-65
2022/08/15 00:17:10;;;;;;;6.10;5.80;;;19.90;99.90;;;;;;6310684;28;20557;-66
2022/08/15 00:20:18;;;;;;;6.03;5.50;;;19.90;99.90;;;;;;6310005;28;20465;-65
2022/08/15 00:23:38;;;;;;;5.80;5.35;;;19.90;99.90;;;;;;6310202;28;20310;-65
2022/08/15 00:26:44;;;;;;;5.20;4.97;;;19.80;99.90;;;;;;6310808;28;20274;-66
2022/08/15 00:30:00;;;;;;;5.13;4.70;;;19.80;99.90;;;;;;6310115;28;20299;-65
2022/08/15 00:33:16;;;;;;;5.70;5.30;;;19.80;99.90;;;;;;6310180;28;20294;-65
2022/08/15 00:36:31;;;;;;;5.38;5.07;;;19.80;99.90;;;;;;6292656;28;20271;-65
2022/08/15 00:39:57;;;;;;;6.90;5.00;;;19.90;99.90;;;;;;6291968;28;20295;-65
2022/08/15 00:43:03;;;;;;;5.57;5.22;;;19.80;99.90;;;;;;6309770;28;20290;-65
2022/08/15 00:46:14;;;;;;;6.68;5.25;;;19.70;99.90;;;;;;6310705;28;20298;-65
2022/08/15 00:49:32;;;;;;;8.10;5.60;;;19.70;99.90;;;;;;6309931;28;20298;-66
2022/08/15 00:52:59;;;;;;;6.00;5.45;;;19.60;99.90;;;;;;6310118;28;20290;-65
2022/08/15 00:56:07;;;;;;;5.60;5.10;;;19.70;99.90;;;;;;6310055;28;20271;-64
2022/08/15 00:59:36;;;;;;;5.82;5.45;;;19.60;99.90;;;;;;6310328;28;20573;-65
2022/08/15 01:02:48;;;;;;;5.53;5.32;;;19.70;99.90;;;;;;6296985;28;20274;-65
2022/08/15 01:06:00;;;;;;;5.40;5.18;;;19.50;99.90;;;;;;6297152;28;20294;-65
2022/08/15 01:09:07;;;;;;;6.18;5.63;;;19.60;99.90;;;;;;6314523;28;20299;-65
2022/08/15 01:12:20;;;;;;;6.30;5.32;;;19.50;99.90;;;;;;6296858;28;20266;-65
2022/08/15 01:15:27;;;;;;;5.43;5.15;;;19.50;99.90;;;;;;6313143;28;20318;-65
2022/08/15 01:18:47;;;;;;;5.50;5.10;;;19.50;99.90;;;;;;6314353;28;20294;-65
2022/08/15 01:22:16;;;;;;;5.30;5.10;;;19.50;99.90;;;;;;6314561;28;20270;-64
2022/08/15 01:25:27;;;;;;;6.68;5.50;;;19.50;99.90;;;;;;6312686;28;20303;-65
2022/08/15 01:28:55;;;;;;;5.75;5.25;;;19.50;99.90;;;;;;6313849;28;20681;-65
2022/08/15 01:32:01;;;;;;;5.82;5.50;;;19.50;99.90;;;;;;6296413;28;20274;-65
2022/08/15 01:35:07;;;;;;;6.05;5.45;;;19.40;99.90;;;;;;6328482;28;20298;-66
2022/08/15 01:38:31;;;;;;;6.00;5.70;;;19.40;99.90;;;;;;6312474;28;20484;-65
2022/08/15 01:42:05;;;;;;;6.20;5.80;;;19.40;99.90;;;;;;6314059;28;20442;-65
2022/08/15 01:45:15;;;;;;;5.78;5.38;;;19.40;99.90;;;;;;6311838;28;20617;-65
2022/08/15 01:48:30;;;;;;;6.32;5.65;;;19.40;99.90;;;;;;6312340;28;20476;-65
2022/08/15 01:51:41;;;;;;;5.88;5.47;;;19.40;99.90;;;;;;6313951;28;20422;-65
2022/08/15 01:54:49;;;;;;;5.65;5.45;;;19.30;99.90;;;;;;6313441;28;20298;-65
2022/08/15 01:58:10;;;;;;;5.93;5.63;;;19.30;99.90;;;;;;6313358;28;20469;-65
2022/08/15 02:01:20;;;;;;;6.57;6.07;;;19.40;99.90;;;;;;6295744;28;20271;-66
2022/08/15 02:04:42;;;;;;;6.60;6.20;;;19.40;99.90;;;;;;6312924;28;20290;-66
2022/08/15 02:07:57;;;;;;;6.13;5.60;;;19.30;99.90;;;;;;6311600;28;20290;-65
2022/08/15 02:11:29;;;;;;;6.32;5.93;;;19.30;99.90;;;;;;6294959;28;20390;-65
2022/08/15 02:14:56;;;;;;;6.05;5.68;;;19.30;99.90;;;;;;6294899;28;20298;-65
2022/08/15 02:18:02;;;;;;;6.78;6.18;;;19.30;99.90;;;;;;6312446;28;20298;-66
2022/08/15 02:21:10;;;;;;;6.20;5.95;;;19.20;99.90;;;;;;6295036;28;20270;-66
2022/08/15 02:24:21;;;;;;;6.93;6.38;;;19.30;99.90;;;;;;6294560;28;20298;-66
2022/08/15 02:27:35;;;;;;;6.47;6.07;;;19.30;99.90;;;;;;6294498;28;20461;-66
2022/08/15 02:30:47;;;;;;;6.30;5.80;;;19.20;99.90;;;;;;6295010;28;20275;-66
2022/08/15 02:34:00;;;;;;;9.93;6.80;;;19.30;99.90;;;;;;6294657;28;20303;-66
2022/08/15 02:37:08;;;;;;;6.90;6.47;;;19.30;99.90;;;;;;6294958;28;20275;-65
2022/08/15 02:40:16;;;;;;;12.93;5.90;;;19.20;99.90;;;;;;6294708;28;20582;-66
2022/08/15 02:43:45;;;;;;;6.75;6.10;;;19.20;99.90;;;;;;6293988;28;20293;-64
2022/08/15 02:46:55;;;;;;;6.78;6.30;;;19.20;99.90;;;;;;6294509;28;20490;-65
2022/08/15 02:50:16;;;;;;;6.40;6.15;;;19.20;99.90;;;;;;6294074;28;20302;-66
2022/08/15 02:53:23;;;;;;;7.05;6.35;;;19.20;99.90;;;;;;6293877;28;20478;-66
2022/08/15 02:56:31;;;;;;;6.90;6.30;;;19.20;99.90;;;;;;6294296;28;20274;-64
2022/08/15 02:59:38;;;;;;;7.05;6.45;;;19.20;99.90;;;;;;6293587;28;20499;-65
2022/08/15 03:02:54;;;;;;;6.63;6.15;;;19.10;99.90;;;;;;6293351;28;20286;-64
2022/08/15 03:06:02;;;;;;;6.70;6.28;;;19.20;99.90;;;;;;6292636;28;20295;-65
2022/08/15 03:09:09;;;;;;;6.20;5.90;;;19.20;99.90;;;;;;6293750;28;20640;-65
2022/08/15 03:12:27;;;;;;;6.43;5.82;;;19.20;99.90;;;;;;6294135;28;20262;-65
2022/08/15 03:15:41;;;;;;;6.90;6.43;;;19.20;99.90;;;;;;6293172;28;20303;-65
2022/08/15 03:18:49;;;;;;;7.18;6.53;;;19.20;99.90;;;;;;6293497;28;20290;-65
2022/08/15 03:21:57;;;;;;;6.32;5.90;;;19.20;99.90;;;;;;6293270;28;20263;-65
2022/08/15 03:25:03;;;;;;;6.25;5.95;;;19.20;99.90;;;;;;6311280;28;20298;-65
2022/08/15 03:28:12;;;;;;;6.53;6.13;;;19.20;99.90;;;;;;6293309;28;20270;-66
2022/08/15 03:31:34;;;;;;;7.20;6.50;;;19.20;99.90;;;;;;6293761;28;20271;-65
2022/08/15 03:34:52;;;;;;;7.85;6.18;;;19.10;99.90;;;;;;6293089;28;20295;-65
2022/08/15 03:38:00;;;;;;;6.60;6.15;;;19.20;99.90;;;;;;6292685;28;20563;-66
2022/08/15 03:41:16;;;;;;;7.97;6.28;;;19.20;99.90;;;;;;6293050;28;20293;-64
2022/08/15 03:44:24;;;;;;;7.13;6.63;;;19.20;99.90;;;;;;6292823;28;20294;-64
2022/08/15 03:47:36;;;;;;;6.72;6.25;;;19.20;99.90;;;;;;6292949;28;20298;-65
2022/08/15 03:50:48;;;;;;;6.80;6.20;;;19.30;99.90;;;;;;6326146;28;20294;-64
2022/08/15 03:54:04;;;;;;;7.82;6.80;;;19.30;99.90;;;;;;6292839;28;20612;-65
2022/08/15 03:57:29;;;;;;;7.05;6.50;;;19.30;99.90;;;;;;6326332;28;20464;-65
2022/08/15 04:00:54;;;;;;;7.05;6.65;;;19.30;99.90;;;;;;6310201;28;20271;-65
2022/08/15 04:04:05;;;;;;;6.82;6.30;;;19.40;99.90;;;;;;6292316;28;20294;-65
2022/08/15 04:07:26;;;;;;;7.15;6.75;;;19.50;99.90;;;;;;6325948;28;20294;-64
2022/08/15 04:10:49;;;;;;;6.70;6.35;;;19.50;99.90;;;;;;6291951;28;20302;-65
2022/08/15 04:13:58;;;;;;;6.80;6.30;;;19.60;99.90;;;;;;6292238;28;20299;-65
2022/08/15 04:17:06;;;;;;;6.40;6.00;;;19.60;99.90;;;;;;6292700;28;20274;-65
2022/08/15 04:20:29;;;;;;;7.28;6.78;;;19.50;99.90;;;;;;6291978;28;20563;-65
2022/08/15 04:23:47;;;;;;;6.63;6.15;;;19.60;99.90;;;;;;6292387;28;20302;-67
2022/08/15 04:26:55;;;;;;;7.88;6.53;;;19.70;99.90;;;;;;6310578;28;20593;-65
2022/08/15 04:30:08;;;;;;;7.03;6.28;;;19.70;99.90;;;;;;6292218;28;20290;-65
2022/08/15 04:33:19;;;;;;;8.20;6.30;;;19.70;99.90;;;;;;6291878;28;20299;-65
2022/08/15 04:36:46;;;;;;;6.78;6.32;;;19.80;99.90;;;;;;6292530;28;20446;-64
2022/08/15 04:39:56;;;;;;;6.80;6.28;;;19.70;99.90;;;;;;6292082;28;20302;-66
2022/08/15 04:43:03;;;;;;;6.43;6.03;;;19.90;99.90;;;;;;6291738;28;20428;-66
2022/08/15 04:46:09;;;;;;;7.35;6.75;;;19.90;99.90;;;;;;6291990;28;20317;-66
2022/08/15 04:49:27;;;;;;;6.38;6.03;;;20.00;99.90;;;;;;6291791;28;20689;-65
2022/08/15 04:52:33;;;;;;;6.55;6.25;;;20.10;99.90;;;;;;6292292;28;20270;-65
2022/08/15 04:55:42;;;;;;;8.10;6.80;;;20.20;99.90;;;;;;6291959;28;20290;-65
2022/08/15 04:58:50;;;;;;;6.75;6.40;;;20.10;99.90;;;;;;6291630;28;20304;-64
2022/08/15 05:02:14;;;;;;;8.88;6.50;;;20.20;99.90;;;;;;6292070;28;20270;-66
2022/08/15 05:05:44;;;;;;;6.35;6.05;;;20.20;99.90;;;;;;6291308;28;20294;-64
2022/08/15 05:08:51;;;;;;;7.07;6.30;;;20.30;99.90;;;;;;6291255;28;20566;-65
2022/08/15 05:12:01;;;;;;;7.25;6.65;;;20.20;99.90;;;;;;6291926;28;20313;-65
2022/08/15 05:15:18;;;;;;;7.00;6.40;;;20.30;99.90;;;;;;6291911;28;20577;-66
2022/08/15 05:18:26;;;;;;;7.88;7.10;;;20.40;99.90;;;;;;6324755;28;20298;-66
2022/08/15 05:21:34;;;;;;;7.85;7.05;;;20.50;99.90;;;;;;6310212;28;20448;-66
2022/08/15 05:24:48;;;;;;;7.15;6.68;;;20.40;99.90;;;;;;6291413;28;20306;-66
2022/08/15 05:27:55;;;;;;;6.88;6.30;;;20.60;99.90;;;;;;6309822;28;20294;-66
2022/08/15 05:31:05;;;;;;;6.35;5.95;;;20.70;99.90;;;;;;6290972;28;20589;-66
2022/08/15 05:34:22;;;;;;;6.20;5.90;;;20.80;99.90;;;;;;6307345;28;20302;-65
2022/08/15 05:37:48;;;;;;;6.32;5.93;;;20.90;99.90;;;;;;6308250;28;20558;-64
2022/08/15 05:41:11;;;;;;;6.88;6.35;;;21.00;99.90;;;;;;6290563;28;20278;-66
2022/08/15 05:44:29;;;;;;;7.32;6.07;;;21.10;99.90;;;;;;6309214;28;20303;-65
2022/08/15 05:48:03;;;;;;;6.40;5.90;;;21.10;99.90;;;;;;6295831;28;20589;-65
2022/08/15 05:51:33;;;;;;;7.10;5.90;;;21.20;99.90;;;;;;6294392;28;20275;-65
2022/08/15 05:55:16;;;;;;;6.75;6.15;;;21.30;99.90;;;;;;6311791;28;20298;-64
2022/08/15 05:58:49;;;;;;;7.75;6.80;;;21.30;99.90;;;;;;6311498;28;20298;-66
2022/08/15 06:02:09;;;;;;;7.90;5.63;;;21.40;99.90;;;;;;6298567;28;20274;-66
2022/08/15 06:05:39;;;;;;;5.93;5.40;;;21.50;99.90;;;;;;6311775;28;20295;-66
2022/08/15 06:08:51;;;;;;;6.13;5.60;;;21.50;99.90;;;;;;6328476;28;20298;-66
2022/08/15 06:12:12;;;;;;;5.68;5.15;;;21.60;99.90;;;;;;6329027;28;20266;-65
2022/08/15 06:15:47;;;;;;;7.50;5.85;;;21.70;99.90;;;;;;6295140;28;20476;-65
2022/08/15 06:19:19;;;;;;;7.30;5.57;;;21.80;99.90;;;;;;6294417;28;20310;-65
2022/08/15 06:22:46;;;;;;;10.23;5.57;;;21.80;99.90;;;;;;6295010;28;20266;-64
2022/08/15 06:26:13;;;;;;;5.82;5.22;;;21.90;99.90;;;;;;6327368;28;20302;-66
2022/08/15 06:29:54;;;;;;;5.93;5.22;;;22.00;99.90;;;;;;6294328;28;20310;-66
2022/08/15 06:33:08;;;;;;;8.45;5.40;;;22.20;99.90;;;;;;6294358;28;20287;-66
2022/08/15 06:36:31;;;;;;;5.85;5.45;;;22.20;99.90;;;;;;6295101;28;20271;-65
2022/08/15 06:39:47;;;;;;;14.90;5.05;;;22.30;99.90;;;;;;6294455;28;20298;-65
2022/08/15 06:43:01;;;;;;;9.45;4.95;;;22.40;99.90;;;;;;6293773;28;20455;-66
2022/08/15 06:46:33;;;;;;;7.82;5.20;;;22.50;99.90;;;;;;6294220;28;20302;-66
2022/08/15 06:50:00;;;;;;;10.73;4.97;;;22.70;99.90;;;;;;6294057;28;20302;-66
2022/08/15 06:53:14;;;;;;;5.05;4.60;;;22.90;99.90;;;;;;6294490;28;20286;-66
2022/08/15 06:56:28;;;;;;;4.97;4.60;;;23.00;99.90;;;;;;6293811;28;20270;-64
2022/08/15 06:59:45;;;;;;;10.95;5.40;;;23.00;99.90;;;;;;6293691;28;20298;-65
2022/08/15 07:03:13;;;;;;;11.43;4.90;;;23.00;99.90;;;;;;6293656;28;20270;-66
2022/08/15 07:06:27;;;;;;;6.10;4.35;;;23.00;99.90;;;;;;6327628;28;20279;-66
2022/08/15 07:09:48;;;;;;;9.30;5.07;;;23.00;99.90;;;;;;6293693;28;20314;-66
2022/08/15 07:13:04;;;;;;;8.10;4.65;;;23.00;99.90;;;;;;6311576;28;20409;-67
2022/08/15 07:16:21;;;;;;;7.50;4.97;;;23.00;99.90;;;;;;6293732;28;20279;-65
2022/08/15 07:19:34;;;;;;;7.85;4.93;;;23.00;99.90;;;;;;6293587;28;20601;-65
2022/08/15 07:22:52;;;;;;;14.60;5.03;;;23.00;99.90;;;;;;6293212;28;20270;-66
2022/08/15 07:26:11;;;;;;;9.40;4.53;;;23.10;99.90;;;;;;6292832;28;20278;-65
2022/08/15 07:29:28;;;;;;;5.65;4.32;;;23.10;99.90;;;;;;6292746;28;20291;-66
2022/08/15 07:32:50;;;;;;;14.63;4.03;;;23.10;99.90;;;;;;6293602;28;20266;-66
2022/08/15 07:36:05;;;;;;;4.50;4.05;;;23.20;99.90;;;;;;6292643;28;20278;-65
2022/08/15 07:39:26;;;;;;;4.30;4.00;;;23.30;99.90;;;;;;6292988;28;20597;-64
2022/08/15 07:42:48;;;;;;;4.57;3.80;;;23.40;99.90;;;;;;6293141;28;20274;-66
2022/08/15 07:46:09;;;;;;;6.40;5.15;;;23.40;99.90;;;;;;6292186;28;20314;-66
2022/08/15 07:49:31;;;;;;;4.93;4.63;;;23.50;99.90;;;;;;6292264;28;20299;-66
2022/08/15 07:52:39;;;;;;;4.70;4.32;;;23.70;99.90;;;;;;6292791;28;20270;-66
2022/08/15 07:56:13;;;;;;;5.18;4.25;;;23.70;99.90;;;;;;6292539;28;20294;-67
2022/08/15 07:59:40;;;;;;;5.03;4.38;;;23.80;99.90;;;;;;6292212;28;20306;-66
2022/08/15 08:03:24;;;;;;;14.30;4.93;;;24.00;99.90;;;;;;6292437;28;20465;-65
2022/08/15 08:06:43;;;;;;;7.97;4.20;;;24.20;99.90;;;;;;6292879;28;20274;-66
2022/08/15 08:10:08;;;;;;;4.10;3.90;;;24.40;99.90;;;;;;6292243;28;20485;-67
2022/08/15 08:13:39;;;;;;;4.43;4.13;;;24.50;99.90;;;;;;6285228;28;20294;-66
2022/08/15 08:16:55;;;;;;;6.35;4.00;;;24.70;99.90;;;;;;6268316;28;20271;-66
2022/08/15 08:20:16;;;;;;;10.60;4.25;;;24.70;99.90;;;;;;6300214;28;20480;-66
2022/08/15 08:23:31;;;;;;;9.63;5.00;;;24.70;99.90;;;;;;6283813;28;20299;-65
2022/08/15 08:26:51;;;;;;;7.40;4.50;;;24.80;99.90;;;;;;6267980;28;20452;-66
2022/08/15 08:30:05;;;;;;;6.40;4.07;;;24.90;99.90;;;;;;6267459;28;20589;-66
2022/08/15 08:33:44;;;;;;;9.38;4.40;;;24.90;99.90;;;;;;6267400;28;20295;-66
2022/08/15 08:36:59;;;;;;;8.27;4.22;;;25.00;99.90;;;;;;6285618;28;20271;-65
2022/08/15 08:43:46;;;;;;;9.63;3.88;;;25.10;99.90;;;;;;6284768;28;20294;-66
2022/08/15 08:47:23;;;;;;;5.05;3.85;;;25.00;99.90;;;;;;6284849;28;20579;-66
2022/08/15 08:50:38;;;;;;;10.07;3.83;;;25.00;99.90;;;;;;6285098;28;20294;-66
2022/08/15 08:54:01;;;;;;;11.20;4.55;;;25.00;99.90;;;;;;6284470;28;20299;-67
2022/08/15 08:57:19;;;;;;;4.10;3.90;;;24.90;99.90;;;;;;6284773;28;20275;-66
2022/08/15 09:00:31;;;;;;;5.07;4.20;;;24.80;99.90;;;;;;6284902;28;20487;-67
2022/08/15 09:03:42;;;;;;;14.60;4.50;;;24.80;99.90;;;;;;6284428;28;20294;-66
2022/08/15 09:06:50;;;;;;;9.90;4.15;;;24.80;99.90;;;;;;6285259;28;20276;-66
2022/08/15 09:10:00;;;;;;;4.85;4.22;;;24.80;99.90;;;;;;6284246;28;20299;-66
2022/08/15 09:16:41;;;;;;;10.68;4.63;;;24.80;99.90;;;;;;6309920;28;20551;-67
2022/08/15 09:19:53;;;;;;;10.70;4.28;;;24.70;99.90;;;;;;6309154;28;20302;-65
2022/08/15 09:23:01;;;;;;;4.68;4.45;;;24.70;99.90;;;;;;6313743;28;20266;-65
2022/08/15 09:26:20;;;;;;;5.97;4.30;;;24.60;99.90;;;;;;6314442;28;20274;-66
2022/08/15 09:29:29;;;;;;;8.00;4.05;;;24.60;99.90;;;;;;6313831;28;20294;-66
2022/08/15 09:32:56;;;;;;;11.48;4.55;;;24.70;99.90;;;;;;6314334;28;20271;-66
2022/08/15 09:36:28;;;;;;;7.75;4.38;;;24.70;99.90;;;;;;6313123;28;20274;-66
2022/08/15 09:39:52;;;;;;;5.22;4.80;;;24.80;99.90;;;;;;6313626;28;20297;-66
2022/08/15 09:43:31;;;;;;;4.82;4.45;;;24.90;99.90;;;;;;6313242;28;20266;-66
2022/08/15 09:47:08;;;;;;;7.03;4.65;;;24.90;99.90;;;;;;6314212;28;20294;-66
2022/08/15 09:50:39;;;;;;;6.70;4.47;;;25.00;99.90;;;;;;6313346;28;20302;-66
2022/08/15 09:54:00;;;;;;;8.18;4.60;;;25.00;99.90;;;;;;6313474;28;20480;-66
2022/08/15 09:57:31;;;;;;;8.73;4.20;;;25.10;99.90;;;;;;6314105;28;20286;-65
2022/08/15 10:01:03;;;;;;;5.25;4.85;;;25.20;99.90;;;;;;6313070;28;20321;-65
2022/08/15 10:04:14;;;;;;;13.65;4.57;;;25.20;99.90;;;;;;6313412;28;20290;-66
2022/08/15 10:07:45;;;;;;;5.10;4.80;;;25.30;99.90;;;;;;6313664;28;20438;-67
2022/08/15 10:10:54;;;;;;;6.72;4.60;;;25.40;99.90;;;;;;6312435;28;20294;-66
2022/08/15 10:14:05;;;;;;;10.20;5.50;;;25.40;99.90;;;;;;6312779;28;20290;-66
2022/08/15 10:17:30;;;;;;;12.77;5.32;;;25.40;99.90;;;;;;6313139;28;20271;-66
2022/08/15 10:20:55;;;;;;;6.30;5.30;;;25.40;99.90;;;;;;6312855;28;20587;-66
2022/08/15 10:24:03;;;;;;;6.38;5.15;;;25.50;99.90;;;;;;6312707;28;20295;-66
2022/08/15 10:27:28;;;;;;;6.38;5.85;;;25.40;99.90;;;;;;6313452;28;20305;-66
2022/08/15 10:30:46;;;;;;;7.90;7.05;;;25.30;99.90;;;;;;6312282;28;20562;-66
2022/08/15 10:34:01;;;;;;;8.73;5.82;;;25.30;99.90;;;;;;6312281;28;20586;-66
2022/08/15 10:37:18;;;;;;;9.95;5.78;;;25.30;99.90;;;;;;6312688;28;20558;-65
2022/08/15 10:40:52;;;;;;;7.80;5.07;;;25.30;99.90;;;;;;6311846;28;20298;-66
2022/08/15 10:44:07;;;;;;;8.95;5.68;;;25.30;99.90;;;;;;6312233;28;20609;-65
2022/08/15 10:47:47;;;;;;;11.95;7.05;;;25.40;99.90;;;;;;6319215;28;20297;-66
2022/08/15 10:51:08;;;;;;;6.43;5.65;;;25.20;99.90;;;;;;6286583;28;20294;-65
2022/08/15 10:54:41;;;;;;;6.15;5.47;;;25.20;99.90;;;;;;6287397;28;20295;-65
2022/08/15 10:57:50;;;;;;;7.43;6.00;;;25.20;99.90;;;;;;6287680;28;20275;-65
2022/08/15 11:01:06;;;;;;;5.47;4.97;;;25.10;99.90;;;;;;6286128;28;20314;-65
2022/08/15 11:04:25;;;;;;;8.13;5.25;;;25.10;99.90;;;;;;6287009;28;20287;-67
2022/08/15 11:07:55;;;;;;;6.72;5.90;;;25.20;99.90;;;;;;6286647;28;20268;-66
2022/08/15 11:11:07;;;;;;;5.60;5.00;;;25.20;99.90;;;;;;6286273;28;20294;-65
2022/08/15 11:14:21;;;;;;;5.97;5.40;;;25.20;99.90;;;;;;6286661;28;20295;-66
2022/08/15 11:17:35;;;;;;;9.80;5.28;;;25.20;99.90;;;;;;6285392;28;20275;-66
2022/08/15 11:20:55;;;;;;;8.35;4.50;;;25.30;99.90;;;;;;6286675;28;20287;-66
2022/08/15 11:24:06;;;;;;;12.02;4.55;;;25.30;99.90;;;;;;6285803;28;20299;-66
2022/08/15 11:27:17;;;;;;;4.18;3.95;;;25.20;99.90;;;;;;6286812;28;20267;-65
2022/08/15 11:30:31;;;;;;;4.85;4.47;;;25.30;99.90;;;;;;6286755;28;20300;-65
2022/08/15 11:33:41;;;;;;;10.48;4.25;;;25.30;99.90;;;;;;6286054;28;20294;-66
2022/08/15 11:36:49;;;;;;;10.98;4.80;;;25.40;99.90;;;;;;6286858;28;20275;-65
2022/08/15 11:40:06;;;;;;;5.47;4.93;;;25.50;99.90;;;;;;6286158;28;20298;-65
2022/08/15 11:43:16;;;;;;;11.80;4.28;;;25.60;99.90;;;;;;6285399;28;20275;-66
2022/08/15 11:46:23;;;;;;;10.13;4.60;;;25.60;99.90;;;;;;6300693;28;20294;-66
2022/08/15 11:49:42;;;;;;;8.30;4.68;;;25.80;99.90;;;;;;6292600;28;20298;-66
2022/08/15 11:52:52;;;;;;;6.63;4.70;;;25.80;99.80;;;;;;6311038;28;20574;-66
2022/08/15 11:55:57;;;;;;;5.40;4.45;;;25.90;99.90;;;;;;6310160;28;20270;-65
2022/08/15 11:59:14;;;;;;;7.25;4.65;;;26.00;99.80;;;;;;6310725;28;20357;-66
2022/08/15 12:02:32;;;;;;;8.38;4.78;;;26.00;99.60;;;;;;6311019;28;20294;-68
2022/08/15 12:05:39;;;;;;;8.48;5.20;;;26.20;99.60;;;;;;6310564;28;20555;-66
2022/08/15 12:09:14;;;;;;;5.93;4.45;;;26.30;99.90;;;;;;6310491;28;20290;-66
2022/08/15 12:12:30;;;;;;;10.25;4.68;;;26.30;99.30;;;;;;6310696;28;20286;-65
2022/08/15 12:15:55;;;;;;;5.32;4.82;;;26.30;99.30;;;;;;6309933;28;20287;-65
2022/08/15 12:19:29;;;;;;;6.40;4.95;;;26.30;99.60;;;;;;6310272;28;20318;-66
2022/08/15 12:22:39;;;;;;;13.25;5.88;;;26.30;99.80;;;;;;6310300;28;20274;-66
2022/08/15 12:26:03;;;;;;;6.50;5.90;;;26.50;99.60;;;;;;6309583;28;20450;-66
2022/08/15 12:29:31;;;;;;;10.82;5.50;;;26.60;99.90;;;;;;6309949;28;20419;-66
2022/08/15 12:32:37;;;;;;;16.75;5.32;;;26.60;99.30;;;;;;6310068;28;20290;-66
2022/08/15 12:35:43;;;;;;;9.75;6.10;;;26.70;99.30;;;;;;6309926;28;20293;-66
2022/08/15 12:39:05;;;;;;;7.20;6.50;;;26.60;98.70;;;;;;6310390;28;20290;-66
2022/08/15 12:42:20;;;;;;;7.05;6.55;;;26.70;98.70;;;;;;6310503;28;20275;-66
2022/08/15 12:45:45;;;;;;;12.63;6.75;;;26.80;98.70;;;;;;6309654;28;20305;-66
2022/08/15 12:48:55;;;;;;;8.70;6.50;;;26.80;99.00;;;;;;6309599;28;20453;-67
2022/08/15 12:52:02;;;;;;;10.20;6.43;;;26.80;99.10;;;;;;6310053;28;20270;-66
2022/08/15 12:55:10;;;;;;;7.93;6.95;;;26.80;98.80;;;;;;6312067;28;20298;-66
2022/08/15 12:58:19;;;;;;;6.93;6.35;;;26.80;99.20;;;;;;6314739;28;20564;-66
2022/08/15 13:01:28;;;;;;;7.32;6.80;;;26.90;99.60;;;;;;6315278;28;20574;-66
2022/08/15 13:04:46;;;;;;;12.60;6.97;;;26.80;99.30;;;;;;6315148;28;20294;-67
2022/08/15 13:08:01;;;;;;;9.50;6.78;;;26.80;99.20;;;;;;6314475;28;20562;-67
2022/08/15 13:11:26;;;;;;;7.25;6.68;;;26.80;99.40;;;;;;6315080;28;20283;-65
2022/08/15 13:14:33;;;;;;;9.95;6.55;;;26.90;99.40;;;;;;6313889;28;20301;-65
2022/08/15 13:17:39;;;;;;;9.52;6.65;;;27.00;99.10;;;;;;6314473;28;20271;-66
2022/08/15 13:24:42;;;;;;;10.80;6.80;;;26.90;98.90;;;;;;6237240;28;20300;-65
2022/08/15 13:27:51;;;;;;;7.35;6.63;;;27.00;99.30;;;;;;6238729;28;20272;-65
2022/08/15 13:30:58;;;;;;;8.52;6.80;;;27.00;98.70;;;;;;6313170;28;20274;-65
2022/08/15 13:34:10;;;;;;;9.50;6.75;;;27.00;98.50;;;;;;6295830;28;20586;-66
2022/08/15 13:37:25;;;;;;;11.43;6.75;;;27.00;98.40;;;;;;6313704;28;20269;-66
2022/08/15 13:40:51;;;;;;;6.55;6.05;;;27.00;98.20;;;;;;6313054;28;20317;-65
2022/08/15 13:44:01;;;;;;;11.60;6.75;;;26.90;98.30;;;;;;6313485;28;20467;-66
2022/08/15 13:47:11;;;;;;;9.48;7.00;;;27.00;98.50;;;;;;6313942;28;20464;-66
2022/08/15 13:50:22;;;;;;;9.63;7.38;;;26.90;98.70;;;;;;6313287;28;20582;-66
2022/08/15 13:53:28;;;;;;;7.30;6.72;;;26.90;98.80;;;;;;6313278;28;20379;-66
2022/08/15 13:56:53;;;;;;;13.07;7.30;;;27.00;98.90;;;;;;6313359;28;20450;-66
2022/08/15 14:00:01;;;;;;;8.38;7.03;;;27.10;98.80;;;;;;6313315;28;20306;-66
2022/08/15 14:03:29;;;;;;;9.60;7.45;;;27.10;98.80;;;;;;6312681;28;20298;-67
2022/08/15 14:06:38;;;;;;;10.10;7.38;;;27.00;99.10;;;;;;6312360;28;20270;-66
2022/08/15 14:09:43;;;;;;;7.38;6.68;;;27.00;99.00;;;;;;6313000;28;20299;-66
2022/08/15 14:13:10;;;;;;;7.38;6.75;;;27.00;99.10;;;;;;6312386;28;20466;-66
2022/08/15 14:16:23;;;;;;;8.52;7.35;;;27.00;98.90;;;;;;6313311;28;20274;-66
2022/08/15 14:19:49;;;;;;;7.90;7.28;;;26.90;99.00;;;;;;6312404;28;20455;-66
2022/08/15 14:23:06;;;;;;;8.55;7.03;;;26.90;98.90;;;;;;6312673;28;20270;-66
2022/08/15 14:26:13;;;;;;;9.20;7.35;;;26.90;98.80;;;;;;6312651;28;20265;-67
2022/08/15 14:29:43;;;;;;;8.50;7.50;;;26.80;99.30;;;;;;6294591;28;20322;-66
2022/08/15 14:32:52;;;;;;;8.88;7.53;;;26.80;99.00;;;;;;6312749;28;20266;-66
2022/08/15 14:36:00;;;;;;;9.63;7.47;;;26.70;99.20;;;;;;6311841;28;20299;-66
2022/08/15 14:39:17;;;;;;;10.25;7.97;;;26.80;99.40;;;;;;6311599;28;20303;-66
2022/08/15 14:42:24;;;;;;;8.05;7.32;;;26.80;99.10;;;;;;6312899;28;20271;-66
2022/08/15 14:45:38;;;;;;;8.55;7.60;;;26.70;99.20;;;;;;6309775;28;20310;-65
2022/08/15 14:49:04;;;;;;;8.52;7.47;;;26.70;99.30;;;;;;6311768;28;20544;-66
2022/08/15 14:52:14;;;;;;;12.85;7.43;;;26.60;99.20;;;;;;6312596;28;20270;-66
2022/08/15 14:55:33;;;;;;;8.25;7.53;;;26.50;99.40;;;;;;6311817;28;20298;-66
2022/08/15 14:58:39;;;;;;;11.40;7.63;;;26.50;99.70;;;;;;6312089;28;20460;-67
2022/08/15 15:01:53;;;;;;;10.13;7.78;;;26.50;99.50;;;;;;6312182;28;20270;-65
2022/08/15 15:05:03;;;;;;;11.40;7.43;;;26.40;99.70;;;;;;6311012;28;20294;-65
2022/08/15 15:08:13;;;;;;;10.70;7.97;;;26.30;99.60;;;;;;6311583;28;20267;-66
2022/08/15 15:11:27;;;;;;;8.77;7.88;;;26.30;99.60;;;;;;6311791;28;20548;-66
2022/08/15 15:14:32;;;;;;;8.35;7.75;;;26.30;99.70;;;;;;6311385;28;20290;-66
2022/08/15 15:17:39;;;;;;;9.90;8.18;;;26.30;99.90;;;;;;6310924;28;20463;-65
2022/08/15 15:20:45;;;;;;;11.85;8.63;;;26.30;99.90;;;;;;6311064;28;20298;-66
2022/08/15 15:23:52;;;;;;;12.02;9.45;;;26.30;99.90;;;;;;6311255;28;20290;-66
2022/08/15 15:26:58;;;;;;;10.65;8.65;;;26.30;99.90;;;;;;6311807;28;20578;-67
2022/08/15 15:30:05;;;;;;;8.77;7.88;;;26.30;99.90;;;;;;6310853;28;20558;-67
2022/08/15 15:33:13;;;;;;;11.27;8.38;;;26.20;99.90;;;;;;6310718;28;20319;-66
2022/08/15 15:36:24;;;;;;;10.18;8.40;;;26.20;99.90;;;;;;6310845;28;20302;-66
2022/08/15 15:39:42;;;;;;;8.35;7.78;;;26.00;99.90;;;;;;6302905;27;20812;-66
2022/08/15 15:42:51;;;;;;;9.27;8.48;;;26.00;99.90;;;;;;6257187;28;20272;-66
2022/08/15 15:46:00;;;;;;;10.82;7.93;;;26.00;99.90;;;;;;6281737;28;20267;-66
2022/08/15 15:49:06;;;;;;;12.30;8.32;;;26.00;99.90;;;;;;6281602;28;20303;-66
2022/08/15 15:52:16;;;;;;;16.83;8.27;;;26.00;99.90;;;;;;6281617;28;20275;-65
2022/08/15 15:55:25;;;;;;;9.43;8.50;;;25.90;99.90;;;;;;6281253;28;20295;-65
2022/08/15 15:58:35;;;;;;;11.45;9.23;;;25.90;99.90;;;;;;6281177;28;20446;-67
2022/08/15 16:02:01;;;;;;;13.20;8.90;;;25.80;99.90;;;;;;6282049;28;20271;-67
2022/08/15 16:05:30;;;;;;;10.57;9.20;;;25.90;99.90;;;;;;6296370;28;20465;-67
2022/08/15 16:08:58;;;;;;;9.88;8.63;;;25.80;99.90;;;;;;6280766;28;20306;-66
2022/08/15 16:12:11;;;;;;;19.75;9.00;;;25.70;99.90;;;;;;6281562;28;20267;-67
2022/08/15 16:15:41;;;;;;;14.00;9.00;;;25.80;99.90;;;;;;6281243;28;20299;-67
2022/08/15 16:18:55;;;;;;;9.35;8.50;;;25.70;99.90;;;;;;6281054;28;20481;-66
2022/08/15 16:22:09;;;;;;;9.38;8.60;;;25.60;99.90;;;;;;6281278;28;20489;-67
2022/08/15 16:25:29;;;;;;;9.70;8.77;;;25.60;99.90;;;;;;6260693;28;20592;-66
2022/08/15 16:28:51;;;;;;;13.73;8.82;;;25.50;99.90;;;;;;6263246;28;20299;-66
2022/08/15 16:32:02;;;;;;;12.27;7.85;;;25.50;99.90;;;;;;6281035;28;20536;-66
2022/08/15 16:35:19;;;;;;;9.20;7.95;;;25.40;99.90;;;;;;6261401;28;20308;-67
2022/08/15 16:38:30;;;;;;;8.77;8.05;;;25.40;99.90;;;;;;6259698;28;20300;-65
2022/08/15 16:42:00;;;;;;;8.32;7.72;;;25.40;99.90;;;;;;6281559;28;20275;-66
2022/08/15 16:45:12;;;;;;;9.85;8.18;;;25.40;99.90;;;;;;6262666;28;20300;-67
2022/08/15 16:48:27;;;;;;;9.13;8.40;;;25.30;99.90;;;;;;6258220;28;20295;-66
2022/08/15 16:51:40;;;;;;;9.20;8.07;;;25.30;99.90;;;;;;6264428;28;20268;-67
2022/08/15 16:55:02;;;;;;;8.45;7.70;;;25.10;99.90;;;;;;6263788;28;20644;-66
2022/08/15 16:58:30;;;;;;;11.40;8.10;;;25.10;99.90;;;;;;6263875;28;20335;-67
2022/08/15 17:01:58;;;;;;;8.50;7.57;;;25.00;99.90;;;;;;6264057;28;20571;-66
2022/08/15 17:05:18;;;;;;;8.65;8.02;;;25.00;99.90;;;;;;6263172;28;20340;-67
2022/08/15 17:08:38;;;;;;;12.15;8.68;;;25.00;99.90;;;;;;6258828;28;20296;-66
2022/08/15 17:11:59;;;;;;;10.82;9.73;;;24.90;99.90;;;;;;6239394;28;20285;-66